EZY73QV EGCC-LFLL
Flight info
| Callsign | EZY73QV |
|---|---|
| Flight time | N/A |
| Altitude | 37000 |
| Route | LISTO P18 TELBA L151 MID UL612 OGULO DCT OKASI DCT OKEKO DCT OKEPI DCT MOU A3 FEDZI |
| Aircraft | A319/M-SDE2E3FGIJ1RWXYZ/LB1 |
Departure
| Time | N/A |
|---|---|
| Airport | Manchester Airport (EGCC) |
Arrival
| Time | 2026-05-06 21:53 |
|---|---|
| Airport | Lyon Saint-Exupéry Airport (LFLL) |
| Time | Latitude | Longitude | Altitude | Speed | Heading |
|---|---|---|---|---|---|
| 2026-05-06 21:41 | 45.97851 | 4.55294 | 11261 ft | 306 kts | 122° |
| 2026-05-06 21:41 | 45.96729 | 4.57875 | 11003 ft | 304 kts | 125° |
| 2026-05-06 21:41 | 45.95339 | 4.60139 | 10747 ft | 301 kts | 140° |
| 2026-05-06 21:41 | 45.93627 | 4.61840 | 10491 ft | 298 kts | 154° |
| 2026-05-06 21:42 | 45.91773 | 4.63138 | 10249 ft | 296 kts | 156° |
| 2026-05-06 21:42 | 45.89924 | 4.64435 | 10019 ft | 295 kts | 155° |
| 2026-05-06 21:42 | 45.88087 | 4.65730 | 9774 ft | 293 kts | 155° |
| 2026-05-06 21:42 | 45.86292 | 4.66994 | 9524 ft | 291 kts | 155° |
| 2026-05-06 21:43 | 45.84479 | 4.68269 | 9274 ft | 289 kts | 155° |
| 2026-05-06 21:43 | 45.82677 | 4.69537 | 9049 ft | 288 kts | 155° |
| 2026-05-06 21:43 | 45.80881 | 4.70798 | 8811 ft | 287 kts | 155° |
| 2026-05-06 21:43 | 45.79093 | 4.72050 | 8568 ft | 286 kts | 155° |
| 2026-05-06 21:44 | 45.77314 | 4.73294 | 8332 ft | 284 kts | 155° |
| 2026-05-06 21:44 | 45.75539 | 4.74532 | 8099 ft | 283 kts | 155° |
| 2026-05-06 21:44 | 45.73774 | 4.75760 | 7861 ft | 282 kts | 155° |
| 2026-05-06 21:44 | 45.72039 | 4.76969 | 7628 ft | 281 kts | 155° |
| 2026-05-06 21:45 | 45.70288 | 4.78190 | 7393 ft | 279 kts | 155° |
| 2026-05-06 21:45 | 45.68546 | 4.79407 | 7134 ft | 278 kts | 155° |
| 2026-05-06 21:45 | 45.66810 | 4.80619 | 6897 ft | 277 kts | 155° |
| 2026-05-06 21:45 | 45.65082 | 4.81824 | 6668 ft | 276 kts | 155° |
| 2026-05-06 21:46 | 45.63358 | 4.83023 | 6441 ft | 275 kts | 155° |
| 2026-05-06 21:46 | 45.61643 | 4.84216 | 6199 ft | 274 kts | 155° |
| 2026-05-06 21:46 | 45.60004 | 4.85588 | 5966 ft | 274 kts | 143° |
| 2026-05-06 21:46 | 45.58654 | 4.87493 | 5735 ft | 273 kts | 128° |
| 2026-05-06 21:47 | 45.57692 | 4.89616 | 5508 ft | 273 kts | 121° |
| 2026-05-06 21:47 | 45.56723 | 4.91902 | 5294 ft | 272 kts | 121° |
| 2026-05-06 21:47 | 45.55739 | 4.94208 | 5063 ft | 271 kts | 122° |
| 2026-05-06 21:47 | 45.54765 | 4.96477 | 4874 ft | 262 kts | 122° |
| 2026-05-06 21:48 | 45.53848 | 4.98613 | 4741 ft | 250 kts | 122° |
| 2026-05-06 21:48 | 45.52998 | 5.00692 | 4527 ft | 242 kts | 114° |
| 2026-05-06 21:48 | 45.52647 | 5.02177 | 4408 ft | 236 kts | 102° |
| 2026-05-06 21:48 | 45.52583 | 5.05201 | 4246 ft | 221 kts | 84° |
| 2026-05-06 21:49 | 45.52716 | 5.07337 | 4139 ft | 211 kts | 85° |
| 2026-05-06 21:49 | 45.53099 | 5.09267 | 4057 ft | 203 kts | 59° |
| 2026-05-06 21:49 | 45.54049 | 5.10693 | 3990 ft | 198 kts | 31° |
| 2026-05-06 21:49 | 45.55339 | 5.11310 | 3955 ft | 197 kts | 2° |
| 2026-05-06 21:50 | 45.56704 | 5.11230 | 3701 ft | 195 kts | 353° |
| 2026-05-06 21:50 | 45.58049 | 5.11064 | 3442 ft | 192 kts | 353° |
| 2026-05-06 21:50 | 45.59374 | 5.10901 | 3188 ft | 190 kts | 353° |
| 2026-05-06 21:50 | 45.60666 | 5.10744 | 2933 ft | 185 kts | 353° |
| 2026-05-06 21:51 | 45.61916 | 5.10593 | 2688 ft | 179 kts | 354° |
| 2026-05-06 21:51 | 45.63134 | 5.10445 | 2455 ft | 173 kts | 354° |
| 2026-05-06 21:51 | 45.64322 | 5.10301 | 2216 ft | 170 kts | 354° |
| 2026-05-06 21:51 | 45.65466 | 5.10162 | 1991 ft | 157 kts | 355° |
| 2026-05-06 21:52 | 45.66504 | 5.10037 | 1775 ft | 144 kts | 355° |
| 2026-05-06 21:52 | 45.67477 | 5.09919 | 1589 ft | 137 kts | 355° |
| 2026-05-06 21:52 | 45.68418 | 5.09805 | 1411 ft | 134 kts | 355° |
| 2026-05-06 21:52 | 45.69028 | 5.09731 | 1282 ft | 132 kts | 355° |
| 2026-05-06 21:53 | 45.69941 | 5.09626 | 1113 ft | 131 kts | 356° |
| 2026-05-06 21:53 | 45.70845 | 5.09507 | 928 ft | 130 kts | 355° |
| 2026-05-06 21:53 | 45.71979 | 5.09376 | 820 ft | 102 kts | 356° |
| 2026-05-06 21:53 | 45.72402 | 5.09319 | 813 ft | 35 kts | 341° |
| 2026-05-06 21:54 | 45.72552 | 5.09212 | 809 ft | 23 kts | 326° |
| 2026-05-06 21:54 | 45.72701 | 5.09069 | 797 ft | 28 kts | 332° |
| 2026-05-06 21:54 | 45.72759 | 5.08985 | 794 ft | 19 kts | 262° |
| 2026-05-06 21:54 | 45.72661 | 5.08798 | 791 ft | 27 kts | 231° |
| 2026-05-06 21:55 | 45.72547 | 5.08597 | 793 ft | 25 kts | 230° |
| 2026-05-06 21:55 | 45.72436 | 5.08430 | 797 ft | 22 kts | 209° |
| 2026-05-06 21:55 | 45.72293 | 5.08414 | 799 ft | 20 kts | 192° |
| 2026-05-06 21:55 | 45.72216 | 5.08191 | 797 ft | 8 kts | 249° |
| 2026-05-06 21:56 | 45.72215 | 5.08189 | 797 ft | 0 kts | 248° |